sensor_id;sensor_type;location;lat;lon;timestamp;pressure;altitude;pressure_sealevel;temperature;humidity
54870;BME280;40756;-37.950;145.008;2022-11-20T00:01:45;99584.92;;;16.42;38.21
54870;BME280;40756;-37.950;145.008;2022-11-20T00:04:14;99578.72;;;17.35;37.88
54870;BME280;40756;-37.950;145.008;2022-11-20T00:06:44;99582.49;;;17.61;36.75
54870;BME280;40756;-37.950;145.008;2022-11-20T00:09:13;99573.78;;;17.07;38.09
54870;BME280;40756;-37.950;145.008;2022-11-20T00:11:43;99570.74;;;17.26;37.41
54870;BME280;40756;-37.950;145.008;2022-11-20T00:14:12;99576.00;;;18.04;37.07
54870;BME280;40756;-37.950;145.008;2022-11-20T00:16:42;99582.32;;;16.81;36.65
54870;BME280;40756;-37.950;145.008;2022-11-20T00:19:11;99581.19;;;16.77;36.61
54870;BME280;40756;-37.950;145.008;2022-11-20T00:21:41;99591.09;;;16.44;36.84
54870;BME280;40756;-37.950;145.008;2022-11-20T00:24:10;99595.41;;;16.59;37.70
54870;BME280;40756;-37.950;145.008;2022-11-20T00:26:40;99604.49;;;17.35;42.55
54870;BME280;40756;-37.950;145.008;2022-11-20T00:29:10;99618.02;;;15.65;45.06
54870;BME280;40756;-37.950;145.008;2022-11-20T00:31:40;99634.76;;;14.86;47.65
54870;BME280;40756;-37.950;145.008;2022-11-20T00:34:11;99640.98;;;14.48;50.98
54870;BME280;40756;-37.950;145.008;2022-11-20T00:36:40;99632.84;;;13.96;52.77
54870;BME280;40756;-37.950;145.008;2022-11-20T00:39:10;99629.23;;;14.14;54.66
54870;BME280;40756;-37.950;145.008;2022-11-20T00:42:24;99628.06;;;14.11;53.22
54870;BME280;40756;-37.950;145.008;2022-11-20T00:44:55;99619.07;;;14.72;54.18
54870;BME280;40756;-37.950;145.008;2022-11-20T00:47:24;99612.31;;;14.97;50.72
54870;BME280;40756;-37.950;145.008;2022-11-20T00:49:55;99611.91;;;14.97;49.30
54870;BME280;40756;-37.950;145.008;2022-11-20T00:52:24;99611.09;;;15.98;46.63
54870;BME280;40756;-37.950;145.008;2022-11-20T00:54:54;99617.64;;;16.61;46.91
54870;BME280;40756;-37.950;145.008;2022-11-20T00:57:23;99613.71;;;17.73;44.43
54870;BME280;40756;-37.950;145.008;2022-11-20T00:59:53;99607.70;;;17.23;42.82
54870;BME280;40756;-37.950;145.008;2022-11-20T01:02:22;99604.81;;;18.04;41.26
54870;BME280;40756;-37.950;145.008;2022-11-20T01:04:52;99602.23;;;18.27;40.96
54870;BME280;40756;-37.950;145.008;2022-11-20T01:07:21;99606.85;;;17.78;43.40
54870;BME280;40756;-37.950;145.008;2022-11-20T01:09:51;99617.25;;;17.00;43.13
54870;BME280;40756;-37.950;145.008;2022-11-20T01:12:21;99623.46;;;17.89;41.20
54870;BME280;40756;-37.950;145.008;2022-11-20T01:14:50;99645.58;;;17.02;46.70
54870;BME280;40756;-37.950;145.008;2022-11-20T01:17:20;99636.46;;;15.47;49.30
54870;BME280;40756;-37.950;145.008;2022-11-20T01:19:50;99634.40;;;14.88;49.55
54870;BME280;40756;-37.950;145.008;2022-11-20T01:22:20;99625.14;;;15.28;51.78
54870;BME280;40756;-37.950;145.008;2022-11-20T01:24:49;99622.49;;;15.91;55.11
54870;BME280;40756;-37.950;145.008;2022-11-20T01:27:19;99617.06;;;16.47;53.82
54870;BME280;40756;-37.950;145.008;2022-11-20T01:29:49;99612.59;;;16.34;52.82
54870;BME280;40756;-37.950;145.008;2022-11-20T01:32:18;99604.35;;;16.78;51.99
54870;BME280;40756;-37.950;145.008;2022-11-20T01:34:49;99604.12;;;16.15;48.89
54870;BME280;40756;-37.950;145.008;2022-11-20T01:37:18;99600.38;;;16.31;47.93
54870;BME280;40756;-37.950;145.008;2022-11-20T01:39:48;99603.03;;;16.26;47.38
54870;BME280;40756;-37.950;145.008;2022-11-20T01:42:18;99607.65;;;15.55;43.83
54870;BME280;40756;-37.950;145.008;2022-11-20T01:44:54;99602.93;;;16.11;45.50
54870;BME280;40756;-37.950;145.008;2022-11-20T01:47:28;99596.27;;;16.40;45.18
54870;BME280;40756;-37.950;145.008;2022-11-20T01:50:04;99589.90;;;16.85;44.20
54870;BME280;40756;-37.950;145.008;2022-11-20T01:52:38;99591.50;;;17.10;42.71
54870;BME280;40756;-37.950;145.008;2022-11-20T01:55:12;99586.42;;;17.78;44.06
54870;BME280;40756;-37.950;145.008;2022-11-20T01:57:42;99588.05;;;16.87;40.87
54870;BME280;40756;-37.950;145.008;2022-11-20T02:00:16;99588.63;;;17.06;39.98
54870;BME280;40756;-37.950;145.008;2022-11-20T02:02:48;99587.49;;;17.66;40.72
54870;BME280;40756;-37.950;145.008;2022-11-20T02:05:22;99581.25;;;18.26;40.61
54870;BME280;40756;-37.950;145.008;2022-11-20T02:07:55;99579.11;;;18.26;40.51
54870;BME280;40756;-37.950;145.008;2022-11-20T02:10:27;99574.52;;;17.76;39.13
54870;BME280;40756;-37.950;145.008;2022-11-20T02:12:58;99578.88;;;17.65;36.91
54870;BME280;40756;-37.950;145.008;2022-11-20T02:15:28;99574.46;;;17.64;35.43
54870;BME280;40756;-37.950;145.008;2022-11-20T02:17:57;99576.58;;;18.39;37.21
54870;BME280;40756;-37.950;145.008;2022-11-20T02:20:27;99577.29;;;18.44;35.27
54870;BME280;40756;-37.950;145.008;2022-11-20T02:22:59;99600.09;;;18.32;36.78
54870;BME280;40756;-37.950;145.008;2022-11-20T02:25:34;99597.46;;;15.43;42.88
54870;BME280;40756;-37.950;145.008;2022-11-20T02:28:06;99605.10;;;15.96;42.78
54870;BME280;40756;-37.950;145.008;2022-11-20T02:30:35;99591.59;;;16.36;43.56
54870;BME280;40756;-37.950;145.008;2022-11-20T02:33:05;99597.00;;;15.97;43.96
54870;BME280;40756;-37.950;145.008;2022-11-20T02:35:43;99595.20;;;16.24;42.53
54870;BME280;40756;-37.950;145.008;2022-11-20T02:38:14;99592.83;;;16.56;43.40
54870;BME280;40756;-37.950;145.008;2022-11-20T02:40:44;99569.63;;;17.04;45.51
54870;BME280;40756;-37.950;145.008;2022-11-20T02:43:15;99562.64;;;17.11;40.76
54870;BME280;40756;-37.950;145.008;2022-11-20T02:45:45;99549.02;;;18.36;40.02
54870;BME280;40756;-37.950;145.008;2022-11-20T02:48:14;99544.70;;;19.08;36.74
54870;BME280;40756;-37.950;145.008;2022-11-20T02:50:45;99546.45;;;19.22;35.93
54870;BME280;40756;-37.950;145.008;2022-11-20T02:53:14;99539.65;;;19.30;34.48
54870;BME280;40756;-37.950;145.008;2022-11-20T02:55:44;99533.63;;;20.85;32.33
54870;BME280;40756;-37.950;145.008;2022-11-20T02:58:13;99530.87;;;18.93;31.46
54870;BME280;40756;-37.950;145.008;2022-11-20T03:00:43;99521.19;;;20.39;31.81
54870;BME280;40756;-37.950;145.008;2022-11-20T03:03:12;99524.33;;;20.17;30.68
54870;BME280;40756;-37.950;145.008;2022-11-20T03:05:42;99516.64;;;19.77;32.43
54870;BME280;40756;-37.950;145.008;2022-11-20T03:08:11;99515.17;;;20.03;32.56
54870;BME280;40756;-37.950;145.008;2022-11-20T03:10:41;99508.01;;;20.68;33.51
54870;BME280;40756;-37.950;145.008;2022-11-20T03:13:10;99511.59;;;19.06;32.47
54870;BME280;40756;-37.950;145.008;2022-11-20T03:15:40;99511.57;;;19.19;31.33
54870;BME280;40756;-37.950;145.008;2022-11-20T03:18:09;99508.79;;;19.42;31.52
54870;BME280;40756;-37.950;145.008;2022-11-20T03:20:39;99509.08;;;18.90;32.47
54870;BME280;40756;-37.950;145.008;2022-11-20T03:23:08;99498.18;;;19.32;33.09
54870;BME280;40756;-37.950;145.008;2022-11-20T03:25:38;99505.52;;;18.95;33.81
54870;BME280;40756;-37.950;145.008;2022-11-20T03:28:07;99506.56;;;18.93;34.89
54870;BME280;40756;-37.950;145.008;2022-11-20T03:30:37;99500.87;;;19.54;36.34
54870;BME280;40756;-37.950;145.008;2022-11-20T03:33:06;99501.20;;;18.87;34.58
54870;BME280;40756;-37.950;145.008;2022-11-20T03:35:36;99489.12;;;20.17;34.38
54870;BME280;40756;-37.950;145.008;2022-11-20T03:38:06;99492.79;;;20.44;34.33
54870;BME280;40756;-37.950;145.008;2022-11-20T03:40:36;99495.50;;;20.47;31.59
54870;BME280;40756;-37.950;145.008;2022-11-20T03:43:05;99498.11;;;20.34;28.86
54870;BME280;40756;-37.950;145.008;2022-11-20T03:45:35;99485.28;;;20.77;29.61
54870;BME280;40756;-37.950;145.008;2022-11-20T03:48:04;99474.44;;;20.36;28.92
54870;BME280;40756;-37.950;145.008;2022-11-20T03:50:34;99478.31;;;20.44;28.33
54870;BME280;40756;-37.950;145.008;2022-11-20T03:53:05;99473.04;;;19.78;29.36
54870;BME280;40756;-37.950;145.008;2022-11-20T03:55:34;99470.98;;;20.82;29.05
54870;BME280;40756;-37.950;145.008;2022-11-20T03:58:04;99468.48;;;21.53;30.19
54870;BME280;40756;-37.950;145.008;2022-11-20T04:00:33;99460.15;;;20.93;30.60
54870;BME280;40756;-37.950;145.008;2022-11-20T04:03:04;99463.59;;;21.15;30.16
54870;BME280;40756;-37.950;145.008;2022-11-20T04:05:34;99448.27;;;21.35;27.08
54870;BME280;40756;-37.950;145.008;2022-11-20T04:08:05;99449.32;;;21.74;29.68
54870;BME280;40756;-37.950;145.008;2022-11-20T04:10:35;99442.86;;;21.43;26.36
54870;BME280;40756;-37.950;145.008;2022-11-20T04:13:04;99450.78;;;21.60;26.92
54870;BME280;40756;-37.950;145.008;2022-11-20T04:15:34;99450.45;;;20.95;28.95
54870;BME280;40756;-37.950;145.008;2022-11-20T04:18:04;99446.08;;;20.77;27.96
54870;BME280;40756;-37.950;145.008;2022-11-20T04:20:33;99454.25;;;20.40;28.15
54870;BME280;40756;-37.950;145.008;2022-11-20T04:23:04;99462.64;;;19.75;29.71
54870;BME280;40756;-37.950;145.008;2022-11-20T04:25:33;99457.26;;;19.06;32.55
54870;BME280;40756;-37.950;145.008;2022-11-20T04:28:03;99450.63;;;19.42;31.53
54870;BME280;40756;-37.950;145.008;2022-11-20T04:30:32;99435.79;;;19.88;29.75
54870;BME280;40756;-37.950;145.008;2022-11-20T04:33:02;99441.59;;;19.75;31.54
54870;BME280;40756;-37.950;145.008;2022-11-20T04:35:34;99448.65;;;19.59;31.35
54870;BME280;40756;-37.950;145.008;2022-11-20T04:38:04;99440.63;;;20.11;32.33
54870;BME280;40756;-37.950;145.008;2022-11-20T04:40:34;99442.80;;;19.27;31.32
54870;BME280;40756;-37.950;145.008;2022-11-20T04:43:03;99434.79;;;19.25;32.50
54870;BME280;40756;-37.950;145.008;2022-11-20T04:45:33;99429.71;;;20.75;32.67
54870;BME280;40756;-37.950;145.008;2022-11-20T04:48:03;99421.04;;;21.31;30.49
54870;BME280;40756;-37.950;145.008;2022-11-20T04:50:32;99423.84;;;21.93;31.59
54870;BME280;40756;-37.950;145.008;2022-11-20T04:53:01;99417.55;;;21.44;29.21
54870;BME280;40756;-37.950;145.008;2022-11-20T04:55:31;99413.05;;;21.30;28.18
54870;BME280;40756;-37.950;145.008;2022-11-20T04:58:01;99406.45;;;22.29;30.37
54870;BME280;40756;-37.950;145.008;2022-11-20T05:00:30;99403.96;;;21.97;27.81
54870;BME280;40756;-37.950;145.008;2022-11-20T05:03:00;99409.44;;;21.83;27.42
54870;BME280;40756;-37.950;145.008;2022-11-20T05:05:29;99401.12;;;21.17;28.36
54870;BME280;40756;-37.950;145.008;2022-11-20T05:07:59;99398.38;;;21.19;26.24
54870;BME280;40756;-37.950;145.008;2022-11-20T05:10:29;99390.93;;;20.72;27.85
54870;BME280;40756;-37.950;145.008;2022-11-20T05:12:59;99387.61;;;20.20;28.82
54870;BME280;40756;-37.950;145.008;2022-11-20T05:15:28;99377.84;;;21.20;27.82
54870;BME280;40756;-37.950;145.008;2022-11-20T05:17:58;99374.44;;;20.98;28.81
54870;BME280;40756;-37.950;145.008;2022-11-20T05:20:27;99372.01;;;20.35;27.73
54870;BME280;40756;-37.950;145.008;2022-11-20T05:22:58;99368.95;;;21.28;28.91
54870;BME280;40756;-37.950;145.008;2022-11-20T05:25:28;99369.16;;;20.99;26.71
54870;BME280;40756;-37.950;145.008;2022-11-20T05:27:57;99373.21;;;20.79;27.91
54870;BME280;40756;-37.950;145.008;2022-11-20T05:30:27;99368.62;;;20.58;29.11
54870;BME280;40756;-37.950;145.008;2022-11-20T05:32:56;99366.93;;;21.28;29.07
54870;BME280;40756;-37.950;145.008;2022-11-20T05:35:25;99367.06;;;21.49;29.76
54870;BME280;40756;-37.950;145.008;2022-11-20T05:37:55;99363.62;;;21.76;29.61
54870;BME280;40756;-37.950;145.008;2022-11-20T05:40:25;99351.43;;;21.63;29.36
54870;BME280;40756;-37.950;145.008;2022-11-20T05:42:55;99350.19;;;22.17;28.62
54870;BME280;40756;-37.950;145.008;2022-11-20T05:45:24;99353.99;;;21.47;28.97
54870;BME280;40756;-37.950;145.008;2022-11-20T05:47:57;99355.73;;;21.79;28.13
54870;BME280;40756;-37.950;145.008;2022-11-20T05:50:26;99349.68;;;20.88;29.10
54870;BME280;40756;-37.950;145.008;2022-11-20T05:52:58;99371.61;;;20.25;29.83
54870;BME280;40756;-37.950;145.008;2022-11-20T05:55:28;99399.58;;;20.03;28.80
54870;BME280;40756;-37.950;145.008;2022-11-20T05:57:58;99426.42;;;19.26;30.39
54870;BME280;40756;-37.950;145.008;2022-11-20T06:00:27;99444.18;;;18.51;34.99
54870;BME280;40756;-37.950;145.008;2022-11-20T06:02:57;99513.32;;;15.61;47.94
54870;BME280;40756;-37.950;145.008;2022-11-20T06:05:27;99488.08;;;15.75;50.40
54870;BME280;40756;-37.950;145.008;2022-11-20T06:07:56;99487.94;;;15.10;51.23
54870;BME280;40756;-37.950;145.008;2022-11-20T06:10:26;99480.31;;;15.04;53.45
54870;BME280;40756;-37.950;145.008;2022-11-20T06:12:58;99466.42;;;15.18;53.59
54870;BME280;40756;-37.950;145.008;2022-11-20T06:15:27;99466.17;;;15.35;55.32
54870;BME280;40756;-37.950;145.008;2022-11-20T06:17:57;99453.84;;;15.38;56.20
54870;BME280;40756;-37.950;145.008;2022-11-20T06:20:26;99448.62;;;15.43;55.26
54870;BME280;40756;-37.950;145.008;2022-11-20T06:22:56;99435.45;;;16.02;56.18
54870;BME280;40756;-37.950;145.008;2022-11-20T06:25:26;99428.96;;;16.27;56.27
54870;BME280;40756;-37.950;145.008;2022-11-20T06:27:56;99427.77;;;16.31;54.47
54870;BME280;40756;-37.950;145.008;2022-11-20T06:30:25;99431.37;;;16.25;52.62
54870;BME280;40756;-37.950;145.008;2022-11-20T06:32:55;99440.30;;;15.47;49.22
54870;BME280;40756;-37.950;145.008;2022-11-20T06:35:24;99440.97;;;15.76;48.93
54870;BME280;40756;-37.950;145.008;2022-11-20T06:37:54;99444.52;;;15.43;48.24
54870;BME280;40756;-37.950;145.008;2022-11-20T06:40:25;99451.15;;;15.21;47.42
54870;BME280;40756;-37.950;145.008;2022-11-20T06:42:55;99459.25;;;15.35;47.08
54870;BME280;40756;-37.950;145.008;2022-11-20T06:45:25;99462.98;;;15.88;47.67
54870;BME280;40756;-37.950;145.008;2022-11-20T06:47:54;99468.51;;;15.16;45.26
54870;BME280;40756;-37.950;145.008;2022-11-20T06:50:26;99462.86;;;15.86;47.33
54870;BME280;40756;-37.950;145.008;2022-11-20T06:52:55;99458.74;;;15.73;45.11
54870;BME280;40756;-37.950;145.008;2022-11-20T06:55:25;99459.74;;;15.58;43.37
54870;BME280;40756;-37.950;145.008;2022-11-20T06:57:55;99475.52;;;15.47;43.02
54870;BME280;40756;-37.950;145.008;2022-11-20T07:00:25;99478.02;;;15.51;43.84
54870;BME280;40756;-37.950;145.008;2022-11-20T07:02:55;99490.05;;;14.71;42.83
54870;BME280;40756;-37.950;145.008;2022-11-20T07:05:25;99493.85;;;15.46;42.54
54870;BME280;40756;-37.950;145.008;2022-11-20T07:07:57;99495.96;;;15.04;42.70
54870;BME280;40756;-37.950;145.008;2022-11-20T07:10:27;99506.84;;;15.58;45.11
54870;BME280;40756;-37.950;145.008;2022-11-20T07:12:56;99513.72;;;15.13;45.15
54870;BME280;40756;-37.950;145.008;2022-11-20T07:15:26;99516.32;;;15.11;45.82
54870;BME280;40756;-37.950;145.008;2022-11-20T07:17:59;99507.55;;;14.06;49.33
54870;BME280;40756;-37.950;145.008;2022-11-20T07:20:28;99510.86;;;15.11;51.49
54870;BME280;40756;-37.950;145.008;2022-11-20T07:22:59;99499.22;;;15.31;49.68
54870;BME280;40756;-37.950;145.008;2022-11-20T07:25:29;99510.28;;;14.51;49.52
54870;BME280;40756;-37.950;145.008;2022-11-20T07:27:59;99521.07;;;14.91;50.27
54870;BME280;40756;-37.950;145.008;2022-11-20T07:30:29;99518.11;;;14.79;50.86
54870;BME280;40756;-37.950;145.008;2022-11-20T07:33:00;99519.99;;;14.43;51.04
54870;BME280;40756;-37.950;145.008;2022-11-20T07:35:29;99525.22;;;14.11;52.42
54870;BME280;40756;-37.950;145.008;2022-11-20T07:37:59;99531.50;;;14.05;52.43
54870;BME280;40756;-37.950;145.008;2022-11-20T07:40:29;99537.28;;;13.41;52.41
54870;BME280;40756;-37.950;145.008;2022-11-20T07:42:59;99511.52;;;14.12;52.19
54870;BME280;40756;-37.950;145.008;2022-11-20T07:45:29;99503.77;;;13.71;51.96
54870;BME280;40756;-37.950;145.008;2022-11-20T07:47:58;99487.15;;;14.53;50.23
54870;BME280;40756;-37.950;145.008;2022-11-20T07:50:28;99497.97;;;14.83;50.63
54870;BME280;40756;-37.950;145.008;2022-11-20T07:53:02;99498.16;;;14.05;50.10
54870;BME280;40756;-37.950;145.008;2022-11-20T07:55:32;99495.14;;;14.91;48.98
54870;BME280;40756;-37.950;145.008;2022-11-20T07:58:01;99505.97;;;14.53;48.41
54870;BME280;40756;-37.950;145.008;2022-11-20T08:00:32;99502.90;;;15.08;47.05
54870;BME280;40756;-37.950;145.008;2022-11-20T08:03:04;99506.61;;;15.38;48.05
54870;BME280;40756;-37.950;145.008;2022-11-20T08:05:34;99516.93;;;14.04;49.38
54870;BME280;40756;-37.950;145.008;2022-11-20T08:08:04;99518.99;;;14.89;49.47
54870;BME280;40756;-37.950;145.008;2022-11-20T08:10:33;99526.09;;;14.41;49.44
54870;BME280;40756;-37.950;145.008;2022-11-20T08:13:03;99521.06;;;15.18;49.47
54870;BME280;40756;-37.950;145.008;2022-11-20T08:15:33;99530.14;;;15.73;47.60
54870;BME280;40756;-37.950;145.008;2022-11-20T08:18:05;99526.13;;;15.16;46.81
54870;BME280;40756;-37.950;145.008;2022-11-20T08:20:36;99531.27;;;14.99;47.06
54870;BME280;40756;-37.950;145.008;2022-11-20T08:23:07;99529.59;;;15.48;47.97
54870;BME280;40756;-37.950;145.008;2022-11-20T08:25:38;99524.48;;;15.43;47.46
54870;BME280;40756;-37.950;145.008;2022-11-20T08:28:09;99523.30;;;15.75;47.24
54870;BME280;40756;-37.950;145.008;2022-11-20T08:30:39;99530.81;;;15.52;47.89
54870;BME280;40756;-37.950;145.008;2022-11-20T08:33:09;99540.11;;;14.61;49.10
54870;BME280;40756;-37.950;145.008;2022-11-20T08:35:39;99556.65;;;14.82;50.96
54870;BME280;40756;-37.950;145.008;2022-11-20T08:38:08;99571.09;;;13.06;54.97
54870;BME280;40756;-37.950;145.008;2022-11-20T08:40:39;99562.61;;;12.81;56.92
54870;BME280;40756;-37.950;145.008;2022-11-20T08:43:09;99577.38;;;12.28;58.18
54870;BME280;40756;-37.950;145.008;2022-11-20T08:45:38;99599.18;;;12.43;59.95
54870;BME280;40756;-37.950;145.008;2022-11-20T08:48:08;99601.00;;;11.80;60.08
54870;BME280;40756;-37.950;145.008;2022-11-20T08:50:38;99604.42;;;11.13;59.80
54870;BME280;40756;-37.950;145.008;2022-11-20T08:53:08;99618.44;;;11.22;60.06
54870;BME280;40756;-37.950;145.008;2022-11-20T08:55:37;99627.29;;;11.43;61.56
54870;BME280;40756;-37.950;145.008;2022-11-20T08:58:07;99637.22;;;10.93;61.91
54870;BME280;40756;-37.950;145.008;2022-11-20T09:00:37;99634.11;;;11.12;61.27
54870;BME280;40756;-37.950;145.008;2022-11-20T09:03:07;99658.91;;;10.39;62.64
54870;BME280;40756;-37.950;145.008;2022-11-20T09:05:37;99663.33;;;10.09;64.03
54870;BME280;40756;-37.950;145.008;2022-11-20T09:08:07;99677.08;;;10.27;65.77
54870;BME280;40756;-37.950;145.008;2022-11-20T09:10:37;99670.69;;;10.08;66.43
54870;BME280;40756;-37.950;145.008;2022-11-20T09:13:07;99677.30;;;10.35;64.74
54870;BME280;40756;-37.950;145.008;2022-11-20T09:15:36;99690.14;;;11.25;63.78
54870;BME280;40756;-37.950;145.008;2022-11-20T09:18:06;99693.08;;;10.35;62.95
54870;BME280;40756;-37.950;145.008;2022-11-20T09:20:36;99696.75;;;10.61;62.33
54870;BME280;40756;-37.950;145.008;2022-11-20T09:23:06;99712.26;;;10.48;61.97
54870;BME280;40756;-37.950;145.008;2022-11-20T09:25:35;99708.55;;;11.16;62.94
54870;BME280;40756;-37.950;145.008;2022-11-20T09:28:05;99700.94;;;10.85;62.52
54870;BME280;40756;-37.950;145.008;2022-11-20T09:30:35;99701.63;;;11.74;61.57
54870;BME280;40756;-37.950;145.008;2022-11-20T09:33:06;99707.10;;;11.51;59.56
54870;BME280;40756;-37.950;145.008;2022-11-20T09:35:35;99712.40;;;11.62;60.39
54870;BME280;40756;-37.950;145.008;2022-11-20T09:38:08;99712.41;;;11.52;58.72
54870;BME280;40756;-37.950;145.008;2022-11-20T09:40:45;99712.95;;;11.97;58.63
54870;BME280;40756;-37.950;145.008;2022-11-20T09:43:21;99714.40;;;11.42;58.45
54870;BME280;40756;-37.950;145.008;2022-11-20T09:46:04;99723.54;;;11.51;58.28
54870;BME280;40756;-37.950;145.008;2022-11-20T09:48:51;99716.97;;;12.25;57.45
54870;BME280;40756;-37.950;145.008;2022-11-20T09:51:33;99712.93;;;12.32;57.70
54870;BME280;40756;-37.950;145.008;2022-11-20T09:54:14;99712.67;;;12.52;56.93
54870;BME280;40756;-37.950;145.008;2022-11-20T09:56:48;99704.82;;;12.19;57.65
54870;BME280;40756;-37.950;145.008;2022-11-20T09:59:29;99698.31;;;12.57;56.45
54870;BME280;40756;-37.950;145.008;2022-11-20T10:02:08;99703.69;;;12.73;55.92
54870;BME280;40756;-37.950;145.008;2022-11-20T10:04:46;99700.58;;;12.22;55.79
54870;BME280;40756;-37.950;145.008;2022-11-20T10:07:21;99702.97;;;12.63;54.97
54870;BME280;40756;-37.950;145.008;2022-11-20T10:09:54;99712.09;;;12.61;54.60
54870;BME280;40756;-37.950;145.008;2022-11-20T10:12:31;99720.01;;;13.13;53.71
54870;BME280;40756;-37.950;145.008;2022-11-20T10:15:19;99724.88;;;12.05;54.57
54870;BME280;40756;-37.950;145.008;2022-11-20T10:18:04;99722.84;;;12.13;52.93
54870;BME280;40756;-37.950;145.008;2022-11-20T10:20:47;99712.91;;;12.70;53.00
54870;BME280;40756;-37.950;145.008;2022-11-20T10:23:35;99707.98;;;13.03;53.25
54870;BME280;40756;-37.950;145.008;2022-11-20T10:26:20;99708.80;;;13.06;52.86
54870;BME280;40756;-37.950;145.008;2022-11-20T10:29:06;99710.56;;;12.88;52.46
54870;BME280;40756;-37.950;145.008;2022-11-20T10:31:41;99716.45;;;12.99;52.39
54870;BME280;40756;-37.950;145.008;2022-11-20T10:34:25;99723.14;;;11.61;52.75
54870;BME280;40756;-37.950;145.008;2022-11-20T10:37:00;99713.14;;;12.65;51.64
54870;BME280;40756;-37.950;145.008;2022-11-20T10:39:35;99721.85;;;12.80;51.60
54870;BME280;40756;-37.950;145.008;2022-11-20T10:42:13;99730.66;;;11.69;51.54
54870;BME280;40756;-37.950;145.008;2022-11-20T10:44:49;99732.29;;;11.84;51.58
54870;BME280;40756;-37.950;145.008;2022-11-20T10:47:21;99729.82;;;12.21;51.25
54870;BME280;40756;-37.950;145.008;2022-11-20T10:49:53;99739.76;;;12.68;51.40
54870;BME280;40756;-37.950;145.008;2022-11-20T10:52:32;99743.39;;;12.54;51.06
54870;BME280;40756;-37.950;145.008;2022-11-20T10:55:11;99736.53;;;12.75;50.94
54870;BME280;40756;-37.950;145.008;2022-11-20T10:57:53;99741.58;;;12.14;50.49
54870;BME280;40756;-37.950;145.008;2022-11-20T11:00:25;99747.66;;;12.20;50.42
54870;BME280;40756;-37.950;145.008;2022-11-20T11:02:56;99749.40;;;12.46;50.84
54870;BME280;40756;-37.950;145.008;2022-11-20T11:05:36;99750.05;;;12.44;51.17
54870;BME280;40756;-37.950;145.008;2022-11-20T11:08:12;99750.81;;;12.13;52.13
54870;BME280;40756;-37.950;145.008;2022-11-20T11:10:47;99752.35;;;12.83;50.73
54870;BME280;40756;-37.950;145.008;2022-11-20T11:13:23;99759.13;;;12.06;50.13
54870;BME280;40756;-37.950;145.008;2022-11-20T11:15:53;99767.05;;;11.98;49.79
54870;BME280;40756;-37.950;145.008;2022-11-20T11:18:27;99767.68;;;12.09;49.97
54870;BME280;40756;-37.950;145.008;2022-11-20T11:20:58;99765.36;;;12.76;49.41
54870;BME280;40756;-37.950;145.008;2022-11-20T11:23:32;99769.29;;;12.55;50.55
54870;BME280;40756;-37.950;145.008;2022-11-20T11:26:05;99762.13;;;12.72;49.40
54870;BME280;40756;-37.950;145.008;2022-11-20T11:28:35;99761.45;;;12.22;50.22
54870;BME280;40756;-37.950;145.008;2022-11-20T11:31:05;99762.54;;;12.62;49.58
54870;BME280;40756;-37.950;145.008;2022-11-20T11:33:34;99763.02;;;12.23;49.97
54870;BME280;40756;-37.950;145.008;2022-11-20T11:36:17;99759.30;;;12.39;49.94
54870;BME280;40756;-37.950;145.008;2022-11-20T11:38:52;99758.10;;;12.86;49.95
54870;BME280;40756;-37.950;145.008;2022-11-20T11:41:25;99759.24;;;12.39;49.59
54870;BME280;40756;-37.950;145.008;2022-11-20T11:44:00;99760.68;;;12.26;48.53
54870;BME280;40756;-37.950;145.008;2022-11-20T11:46:33;99766.60;;;12.24;48.41
54870;BME280;40756;-37.950;145.008;2022-11-20T11:49:16;99773.70;;;12.75;49.77
54870;BME280;40756;-37.950;145.008;2022-11-20T11:52:01;99774.29;;;12.30;48.67
54870;BME280;40756;-37.950;145.008;2022-11-20T11:54:36;99775.58;;;12.46;49.59
54870;BME280;40756;-37.950;145.008;2022-11-20T11:57:14;99776.40;;;12.83;48.28
54870;BME280;40756;-37.950;145.008;2022-11-20T11:59:57;99782.97;;;12.85;48.61
54870;BME280;40756;-37.950;145.008;2022-11-20T12:02:36;99789.54;;;12.70;48.82
54870;BME280;40756;-37.950;145.008;2022-11-20T12:05:16;99793.38;;;11.38;49.19
54870;BME280;40756;-37.950;145.008;2022-11-20T12:07:49;99796.02;;;12.23;48.69
54870;BME280;40756;-37.950;145.008;2022-11-20T12:10:23;99796.19;;;12.03;48.63
54870;BME280;40756;-37.950;145.008;2022-11-20T12:13:09;99796.97;;;12.47;49.49
54870;BME280;40756;-37.950;145.008;2022-11-20T12:15:42;99790.17;;;12.58;49.00
54870;BME280;40756;-37.950;145.008;2022-11-20T12:18:17;99788.99;;;12.47;48.43
54870;BME280;40756;-37.950;145.008;2022-11-20T12:20:57;99790.04;;;12.01;48.38
54870;BME280;40756;-37.950;145.008;2022-11-20T12:23:39;99805.51;;;12.06;49.85
54870;BME280;40756;-37.950;145.008;2022-11-20T12:26:18;99796.87;;;12.64;49.65
54870;BME280;40756;-37.950;145.008;2022-11-20T12:29:01;99808.80;;;11.87;48.66
54870;BME280;40756;-37.950;145.008;2022-11-20T12:31:42;99805.07;;;10.85;49.88
54870;BME280;40756;-37.950;145.008;2022-11-20T12:34:29;99808.01;;;10.57;50.37
54870;BME280;40756;-37.950;145.008;2022-11-20T12:37:10;99804.63;;;11.33;47.68
54870;BME280;40756;-37.950;145.008;2022-11-20T12:39:43;99795.87;;;10.31;47.68
54870;BME280;40756;-37.950;145.008;2022-11-20T12:42:31;99795.13;;;10.22;48.04
54870;BME280;40756;-37.950;145.008;2022-11-20T12:45:18;99784.96;;;10.88;48.33
54870;BME280;40756;-37.950;145.008;2022-11-20T12:48:05;99793.40;;;10.29;51.20
54870;BME280;40756;-37.950;145.008;2022-11-20T12:51:04;99795.20;;;10.14;51.32
54870;BME280;40756;-37.950;145.008;2022-11-20T12:53:45;99795.02;;;11.25;49.96
54870;BME280;40756;-37.950;145.008;2022-11-20T12:56:27;99794.45;;;10.84;48.84